ADDS METAR Data INFO
IDs: Format: Raw Decoded Include TAF

Data at: 0308 UTC 16 Aug 2018

PFWS 160256Z AUTO 29005KT 10SM BKN030 12/09 A2997 RMK AO2 SLP155 60000 T01170089 58001
PFWS 160217Z AUTO 29005KT 10SM FEW018 BKN032 OVC043 12/09 A2997 RMK AO2
PFWS 160156Z AUTO 31005KT 10SM BKN018 BKN025 OVC033 12/09 A2997 RMK AO2 RAE34 SLP156 P0000 T01170089
PFWS 160056Z AUTO 28005KT 8SM -RA SCT014 BKN019 OVC025 11/09 A2997 RMK AO2 RAE19B43 SLP156 P0000 T01110094
PFWS 160052Z AUTO 27004KT 8SM -RA SCT014 OVC023 11/09 A2997 RMK AO2 RAE19B43 P0000
PFWS 160036Z AUTO 27008KT 10SM BKN014 OVC032 11/09 A2997 RMK AO2 RAE19 P0000
PFWS 152356Z AUTO 23006KT 7SM -RA BKN018 OVC023 11/09 A2998 RMK AO2 SLP158 P0000 60000 T01060094 10122 20100 50000
PFWS 152256Z AUTO 28007KT 10SM -RA BKN020 OVC024 12/09 A2998 RMK AO2 RAE11B46 SLP158 P0000 T01220089
PFWS 152156Z AUTO 24006KT 10SM -RA SCT021 OVC027 11/10 A2998 RMK AO2 RAB23 SLP158 P0000 T01110100
PFWS 152107Z AUTO 19006KT 10SM FEW014 BKN022 BKN027 12/09 A2998 RMK AO2
PFWS 152056Z AUTO 20006KT 10SM FEW014 SCT022 BKN046 12/09 A2998 RMK AO2 RAE00 SLP158 P0000 60000 T01170094 50002
PFWS 152041Z AUTO 19007KT 10SM SCT012 12/09 A2998 RMK AO2 RAE00 P0000
PFWS 151940Z AUTO 19006KT 10SM BKN010 BKN036 OVC060 11/09 A2998 RMK AO2 RAB1858E19 CIG 009V014 P0000
PFWS 151913Z AUTO 22005KT 10SM -RA FEW010 BKN030 OVC035 11/09 A2998 RMK AO2 RAB1858 P0000
PFWS 151856Z AUTO 22006KT 10SM FEW008 OVC028 11/09 A2998 RMK AO2 RAE44 SLP158 P0000 T01060089
PFWS 151841Z AUTO 22008KT 10SM -RA FEW008 BKN026 OVC050 10/09 A2998 RMK AO2 P0000
PFWS 151828Z AUTO 22009KT 10SM BKN008 BKN022 OVC055 11/10 A2998 RMK AO2 RAE26 CIG 007V014 P0000
PFWS 151810Z AUTO 20007KT 10SM -RA SCT008 OVC055 11/10 A2997 RMK AO2 P0000
PFWS 151756Z AUTO 20008KT 10SM -RA FEW043 OVC055 10/09 A2997 RMK AO2 SLP156 P0000 60001 T01000094 10100 20089 53002
PFWS 151656Z AUTO 19006KT 10SM -RA FEW021 BKN037 OVC046 09/09 A2997 RMK AO2 RAB23 SLP155 P0000 T00940094
PFWS 151649Z AUTO 19006KT 10SM -RA FEW021 SCT031 OVC040 09/09 A2997 RMK AO2 RAB23 P0000
PFWS 151607Z AUTO 22007KT 10SM BKN020 BKN024 OVC032 09/09 A2997 RMK AO2
PFWS 151556Z AUTO 21006KT 10SM FEW016 SCT030 BKN035 09/09 A2997 RMK AO2 RAB14E28 SLP154 P0000 T00890089
PFWS 151531Z AUTO 20006KT 10SM FEW013 SCT023 BKN030 09/09 A2996 RMK AO2 RAB14E28 P0000
PFWS 151524Z AUTO 20006KT 10SM -RA SCT017 BKN023 OVC030 09/09 A2996 RMK AO2 RAB14 P0000
PFWS 151456Z AUTO 19006KT 10SM FEW030 OVC043 09/09 A2997 RMK AO2 SLP154 P0001 60001 T00890089 56004
PFWS 151416Z AUTO 20004KT 10SM SCT027 OVC034 09/09 A2997 RMK AO2 P0001
PFWS 151356Z AUTO 21004KT 9SM FEW015 BKN020 OVC025 09/09 A2997 RMK AO2 RAB06E49 SLP155 P0000 T00940094
PFWS 151343Z AUTO 20004KT 8SM -RA SCT013 OVC019 09/09 A2997 RMK AO2 RAB06 P0000
PFWS 151322Z AUTO 21006KT 5SM -RA BR FEW010 BKN014 OVC047 09/09 A2997 RMK AO2 RAB06 P0000
PFWS 151214Z AUTO 21007KT 10SM FEW018 BKN025 OVC060 09/09 A2998 RMK AO2
PFWS 151156Z AUTO 19005KT 10SM FEW025 OVC060 09/09 A2998 RMK AO2 SLP158 60000 70002 T00890089 10100 20089 57004
PFWS 151104Z AUTO 19004KT 10SM SCT022 OVC055 09/09 A2998 RMK AO2
PFWS 151056Z AUTO 19004KT 10SM BKN020 OVC055 09/09 A2998 RMK AO2 SLP159 T00940089
PFWS 150956Z AUTO 19003KT 10SM SCT019 OVC025 09/09 A2999 RMK AO2 SLP160 T00940094
PFWS 150939Z AUTO 18004KT 10SM SCT017 BKN022 OVC030 09/09 A2999 RMK AO2
PFWS 150918Z AUTO 19005KT 10SM FEW019 OVC030 09/09 A2999 RMK AO2
PFWS 150856Z AUTO 20003KT 10SM BKN019 OVC026 09/09 A2999 RMK AO2 RAE23 SLP162 P0000 60000 T00940094 401280094 50001
PFWS 150756Z AUTO 21006KT 6SM -RA BR OVC018 09/09 A2999 RMK AO2 RAB56 SLP162 P0000 T00940094
PFWS 150656Z AUTO 21005KT 10SM OVC020 10/09 A2999 RMK AO2 SLP162 T01000089
PFWS 150624Z AUTO 24007KT 10SM BKN020 10/08 A2999 RMK AO2
PFWS 150556Z AUTO 24007KT 10SM FEW020 10/08 A2999 RMK AO2 SLP160 T01000083 10122 20100 55003
PFWS 150456Z AUTO 25013KT 10SM CLR 11/08 A2998 RMK AO2 SLP160 T01110078
PFWS 150356Z AUTO 25016G20KT 10SM CLR 11/07 A2999 RMK AO2 SLP161 T01110072
PFWS 150256Z AUTO 25018G23KT 10SM FEW018 11/07 A2999 RMK AO2 PK WND 25026/0201 SLP163 T01110072 58001
PFWS 150156Z AUTO 25020G25KT 10SM SCT020 12/07 A2999 RMK AO2 PK WND 24027/0135 SLP163 T01220072
PFWS 150103Z AUTO 25019G26KT 10SM BKN018 BKN035 12/08 A3000 RMK AO2 PK WND 25026/0102
PFWS 150027Z AUTO 25022G29KT 10SM SCT020 BKN035 12/08 A3000 RMK AO2 PK WND 24031/0014
PFWS 142356Z AUTO 25024G30KT 10SM BKN022 BKN030 BKN035 12/08 A3000 RMK AO2 PK WND 24034/2304 SLP164 T01220078 10128 20111 51006
PFWS 142310Z AUTO 24024G34KT 10SM BKN018 12/08 A3000 RMK AO2 PK WND 24034/2304
PFWS 142229Z AUTO 25023G31KT 10SM FEW018 SCT035 13/07 A2999 RMK AO2 PK WND 26032/2219
PFWS 142156Z AUTO 24023G31KT 10SM BKN018 OVC035 12/08 A2999 RMK AO2 PK WND 24031/2150 SLP161 T01220083
PFWS 142056Z AUTO 26023G32KT 10SM FEW025 BKN035 12/07 A2998 RMK AO2 PK WND 27032/2048 SLP158 T01220067 53009
PFWS 141956Z AUTO 26022G30KT 10SM FEW029 BKN035 12/07 A2997 RMK AO2 PK WND 26030/1954 SLP155 T01170067
PFWS 141856Z AUTO 26021G31KT 10SM FEW022 SCT030 BKN037 12/07 A2996 RMK AO2 PK WND 26034/1821 SLP151 T01170072
PFWS 141852Z AUTO 26024G31KT 10SM FEW020 SCT026 BKN037 12/07 A2995 RMK AO2 PK WND 26034/1821
PFWS 141803Z AUTO 27023G32KT 10SM BKN024 BKN035 12/07 A2994 RMK AO2 PK WND 26032/1757
PFWS 141756Z AUTO 26024G30KT 10SM SCT024 BKN030 OVC037 11/07 A2994 RMK AO2 PK WND 26031/1717 SLP144 60002 T01110072 10117 20106 50013
PFWS 141724Z AUTO 27024G31KT 10SM SCT027 OVC036 11/07 A2993 RMK AO2 PK WND 26031/1717
PFWS 141656Z AUTO 26018G27KT 10SM SCT021 OVC029 11/07 A2994 RMK AO2 PK WND 27033/1636 RAB24E53 SLP145 P0000 T01060072
PFWS 141556Z AUTO 26021G29KT 10SM FEW023 OVC029 11/07 A2992 RMK AO2 PK WND 26035/1536 SLP139 T01060072